Afua, Brazil
Current Conditions -  °F | °C
As of 3:00 PM on Sunday 21 Dec 2014 (Local Time) from SBMQ Reporting Station
Scattered Clouds Scattered Clouds  
Wind Chill: 90°   Ceiling: Unl
Heat Index: 100°   Visibility: 6mi
Dew Point: 75°   Wind: 14mph
Humidity: 62%   Direction: 60°ENE
Pressure: 29.8"   Gusts: NA
Location:  0.16°S, 50.39°W
Report Text: SBMQ 211800Z 06012KT 9999 FEW027 FEW030TCU SCT100 32/24 Q1009
Loading
Personal Weather Stations






























Interactive Weather Map New forecast layout! Learn more

10-Day Weather Forecast

Advertisements
Track Severe Weather on mobile